Terminal Aerodrome Forecast
Issued by NWS

Home | Current Version | Previous Version | Text Only | Print | Product List | Glossary On
Versions: 1 2 3 4 5 6 7 8 9 10 11 12 13 14 15 16
085
FTUS43 KOAX 282351 CCA
TAFSNY
TAF COR
KSNY 282351Z 2900/2924 08008KT P6SM SCT050
     FM290800 VRB04KT 3SM BR OVC007
      TEMPO 2910/2914 1/2SM FG VV003
     FM291500 18005KT P6SM SCT060=

USA.gov is the U.S. government's official web portal to all federal, state and local government web resources and services.